Time;durP1;ratioP1;P1;durP2;ratioP2;P2;SDS_P1;SDS_P2;PMS_P1;PMS_P2;Temp;Humidity;BMP_temperature;BMP_pressure;BME280_temperature;BME280_humidity;BME280_pressure;Samples;Min_cycle;Max_cycle;Signal;HPM_P1;HPM_P2
2021/06/08 00:01:07;;;;;;;27.00;24.20;;;18.70;99.90;;;;;;4988827;28;20186;-69
2021/06/08 00:03:33;;;;;;;26.90;24.27;;;18.80;99.90;;;;;;4992728;28;20187;-69
2021/06/08 00:05:58;;;;;;;28.07;25.27;;;18.90;99.90;;;;;;5004985;28;20682;-68
2021/06/08 00:08:24;;;;;;;27.90;25.00;;;18.80;99.90;;;;;;4989603;28;20453;-67
2021/06/08 00:10:50;;;;;;;27.08;24.38;;;18.70;99.90;;;;;;4997680;28;20252;-67
2021/06/08 00:13:16;;;;;;;26.40;23.70;;;18.70;99.90;;;;;;4989787;28;20195;-67
2021/06/08 00:15:42;;;;;;;27.60;24.73;;;18.70;99.90;;;;;;4998346;28;20211;-66
2021/06/08 00:18:07;;;;;;;27.97;24.17;;;18.80;99.90;;;;;;4985391;28;20197;-67
2021/06/08 00:20:33;;;;;;;28.27;25.47;;;18.70;99.90;;;;;;4989972;28;20711;-67
2021/06/08 00:22:59;;;;;;;27.70;24.80;;;18.60;99.90;;;;;;4989907;28;20175;-67
2021/06/08 00:25:24;;;;;;;27.93;24.90;;;18.60;99.90;;;;;;4991711;28;20683;-67
2021/06/08 00:27:51;;;;;;;28.40;25.40;;;18.60;99.90;;;;;;5002734;28;20247;-68
2021/06/08 00:30:17;;;;;;;29.70;26.70;;;18.60;99.90;;;;;;5003897;28;20193;-67
2021/06/08 00:32:43;;;;;;;25.83;23.17;;;18.60;99.90;;;;;;4989209;28;20293;-67
2021/06/08 00:35:09;;;;;;;26.70;24.00;;;18.80;99.90;;;;;;4989923;28;20461;-67
2021/06/08 00:37:36;;;;;;;25.38;22.77;;;18.70;99.90;;;;;;4998627;28;20214;-67
2021/06/08 00:40:03;;;;;;;27.40;23.40;;;18.70;99.90;;;;;;4995799;28;20256;-68
2021/06/08 00:42:30;;;;;;;25.70;23.20;;;18.80;99.90;;;;;;5018683;28;20543;-68
2021/06/08 00:44:56;;;;;;;24.70;22.17;;;18.70;99.90;;;;;;5000649;28;20194;-68
2021/06/08 00:47:22;;;;;;;25.60;23.07;;;18.80;99.90;;;;;;4988699;28;20269;-68
2021/06/08 00:49:48;;;;;;;24.43;21.93;;;18.80;99.90;;;;;;4989064;28;20500;-67
2021/06/08 00:52:15;;;;;;;25.70;23.00;;;18.80;99.90;;;;;;5000657;28;20200;-67
2021/06/08 00:54:40;;;;;;;23.92;21.63;;;18.90;99.90;;;;;;5019085;28;20198;-67
2021/06/08 00:57:06;;;;;;;22.43;19.97;;;18.80;99.90;;;;;;4992793;28;20203;-67
2021/06/08 00:59:32;;;;;;;24.90;22.40;;;18.80;99.90;;;;;;5006319;28;20197;-67
2021/06/08 01:01:57;;;;;;;25.10;22.60;;;18.80;99.90;;;;;;4994867;28;20281;-68
2021/06/08 01:04:23;;;;;;;25.40;22.83;;;18.80;99.90;;;;;;4990419;28;20192;-67
2021/06/08 01:06:49;;;;;;;26.17;23.47;;;18.80;99.90;;;;;;5001343;28;20206;-67
2021/06/08 01:09:14;;;;;;;27.23;24.63;;;18.80;99.90;;;;;;5004771;28;20180;-67
2021/06/08 01:11:40;;;;;;;25.60;23.13;;;18.80;99.90;;;;;;5005681;28;20185;-67
2021/06/08 01:14:06;;;;;;;27.60;24.80;;;18.80;99.90;;;;;;5002976;28;20551;-67
2021/06/08 01:16:32;;;;;;;26.20;23.60;;;18.70;99.90;;;;;;4994256;28;20531;-67
2021/06/08 01:18:59;;;;;;;26.85;24.25;;;18.80;99.90;;;;;;5004207;28;20651;-67
2021/06/08 01:21:27;;;;;;;28.88;25.88;;;18.80;99.90;;;;;;4992135;28;20284;-67
2021/06/08 01:23:54;;;;;;;25.60;22.95;;;18.80;99.90;;;;;;4991731;28;20190;-67
2021/06/08 01:26:23;;;;;;;25.58;23.05;;;18.80;99.90;;;;;;4999087;28;20721;-67
2021/06/08 01:28:50;;;;;;;26.23;23.35;;;18.80;99.90;;;;;;4999828;28;20190;-70
2021/06/08 01:31:19;;;;;;;24.45;22.05;;;18.80;99.90;;;;;;5002603;28;20190;-68
2021/06/08 01:33:46;;;;;;;24.92;22.52;;;18.80;99.90;;;;;;5003837;28;20299;-68
2021/06/08 01:36:16;;;;;;;24.10;21.70;;;18.80;99.90;;;;;;5007489;28;20220;-68
2021/06/08 01:38:44;;;;;;;23.20;20.90;;;18.80;99.90;;;;;;4995080;28;20217;-68
2021/06/08 01:41:12;;;;;;;26.00;23.33;;;18.90;99.90;;;;;;5001998;28;20183;-67
2021/06/08 01:43:42;;;;;;;25.98;23.25;;;18.80;99.90;;;;;;4991762;28;20249;-67
2021/06/08 01:46:09;;;;;;;23.45;21.10;;;18.80;99.90;;;;;;5006896;28;20217;-68
2021/06/08 01:48:35;;;;;;;24.67;22.15;;;19.00;99.90;;;;;;4994806;28;20216;-67
2021/06/08 01:51:21;;;;;;;25.08;22.42;;;18.90;99.90;;;;;;5002039;28;20267;-67
2021/06/08 01:54:25;;;;;;;25.80;23.33;;;18.70;99.90;;;;;;4999824;28;20225;-69
2021/06/08 01:57:18;;;;;;;26.20;23.63;;;18.50;99.90;;;;;;5004208;28;20258;-68
2021/06/08 02:00:36;;;;;;;26.17;23.67;;;18.60;99.90;;;;;;5000547;28;20190;-68
2021/06/08 02:03:08;;;;;;;24.40;21.90;;;18.70;99.90;;;;;;4962256;28;20669;-67
2021/06/08 02:05:52;;;;;;;26.13;23.55;;;18.70;99.90;;;;;;4985612;28;20680;-68
2021/06/08 02:08:31;;;;;;;23.30;21.15;;;18.70;99.90;;;;;;4990707;28;20247;-68
2021/06/08 02:11:14;;;;;;;25.70;23.00;;;18.80;99.90;;;;;;4990488;28;20184;-67
2021/06/08 02:14:02;;;;;;;25.27;22.60;;;18.80;99.90;;;;;;4984027;28;20180;-67
2021/06/08 02:16:43;;;;;;;25.73;23.33;;;18.80;99.90;;;;;;4998118;28;20265;-67
2021/06/08 02:19:11;;;;;;;27.02;24.45;;;18.60;99.90;;;;;;5003020;28;20187;-67
2021/06/08 02:21:43;;;;;;;25.52;22.83;;;18.50;99.90;;;;;;5006904;28;20194;-68
2021/06/08 02:24:11;;;;;;;25.83;23.17;;;18.60;99.90;;;;;;4993612;28;20193;-68
2021/06/08 02:26:41;;;;;;;26.65;24.08;;;18.50;99.90;;;;;;5005690;28;20216;-67
2021/06/08 02:29:09;;;;;;;26.77;24.15;;;18.50;99.90;;;;;;5002217;28;20328;-67
2021/06/08 02:31:35;;;;;;;26.08;23.20;;;18.60;99.90;;;;;;4992577;28;20198;-67
2021/06/08 02:34:03;;;;;;;26.52;23.77;;;18.60;99.90;;;;;;4999878;28;20192;-67
2021/06/08 02:36:29;;;;;;;25.38;22.77;;;18.70;99.90;;;;;;4996459;28;20279;-67
2021/06/08 02:38:56;;;;;;;24.40;21.90;;;19.00;99.90;;;;;;4999733;28;20180;-67
2021/06/08 02:41:23;;;;;;;25.73;22.85;;;18.80;99.90;;;;;;4995225;28;20260;-68
2021/06/08 02:43:51;;;;;;;27.35;24.65;;;18.80;99.90;;;;;;4999055;28;20171;-67
2021/06/08 02:46:17;;;;;;;26.90;24.20;;;18.80;99.90;;;;;;4994771;28;20258;-67
2021/06/08 02:48:45;;;;;;;28.05;25.15;;;18.80;99.90;;;;;;4998555;28;20194;-67
2021/06/08 02:51:10;;;;;;;28.67;25.83;;;18.80;99.90;;;;;;4989682;28;20202;-67
2021/06/08 02:53:37;;;;;;;31.07;27.43;;;18.70;99.90;;;;;;4990147;28;20189;-67
2021/06/08 02:56:05;;;;;;;28.35;25.35;;;18.40;99.90;;;;;;5000847;28;20473;-67
2021/06/08 02:58:33;;;;;;;29.20;26.10;;;18.40;99.90;;;;;;4991582;28;20189;-66
2021/06/08 03:00:58;;;;;;;28.58;25.73;;;18.50;99.90;;;;;;4999240;28;20644;-67
2021/06/08 03:03:33;;;;;;;27.20;24.30;;;18.50;99.90;;;;;;4988633;28;20282;-67
2021/06/08 03:06:05;;;;;;;28.52;25.52;;;18.50;99.90;;;;;;4985030;28;20209;-66
2021/06/08 03:08:52;;;;;;;29.13;25.98;;;18.50;99.90;;;;;;4989743;28;20657;-68
2021/06/08 03:11:29;;;;;;;30.00;26.80;;;18.50;99.90;;;;;;4986324;28;20196;-66
2021/06/08 03:13:56;;;;;;;29.50;26.48;;;18.40;99.90;;;;;;5005622;28;20182;-67
2021/06/08 03:16:27;;;;;;;29.33;26.17;;;18.40;99.90;;;;;;4999092;28;20661;-67
2021/06/08 03:19:00;;;;;;;28.10;25.33;;;18.50;99.90;;;;;;4995327;28;20183;-66
2021/06/08 03:21:32;;;;;;;28.80;25.80;;;18.60;99.90;;;;;;4985754;28;20182;-66
2021/06/08 03:24:03;;;;;;;28.35;25.48;;;18.70;99.90;;;;;;4995512;28;20187;-67
2021/06/08 03:26:31;;;;;;;26.92;24.20;;;18.60;99.90;;;;;;5001207;28;20243;-67
2021/06/08 03:29:00;;;;;;;29.17;25.58;;;18.60;99.90;;;;;;4993237;28;20200;-67
2021/06/08 03:31:26;;;;;;;28.85;25.60;;;18.70;99.90;;;;;;5002402;28;20228;-67
2021/06/08 03:33:53;;;;;;;27.65;24.75;;;18.70;99.90;;;;;;4993016;28;20235;-67
2021/06/08 03:36:19;;;;;;;27.52;24.65;;;18.70;99.90;;;;;;4996061;28;20243;-67
2021/06/08 03:38:45;;;;;;;27.02;24.42;;;18.80;99.90;;;;;;4999872;28;20212;-66
2021/06/08 03:41:11;;;;;;;27.73;24.92;;;18.60;99.90;;;;;;4991782;28;20191;-66
2021/06/08 03:43:39;;;;;;;27.40;24.75;;;18.50;99.90;;;;;;4992686;28;20234;-66
2021/06/08 03:46:05;;;;;;;29.55;26.35;;;18.60;99.90;;;;;;4997408;28;20211;-67
2021/06/08 03:48:31;;;;;;;27.53;23.73;;;18.60;99.90;;;;;;4992028;28;20223;-66
2021/06/08 03:50:57;;;;;;;26.73;24.03;;;18.70;99.90;;;;;;4989118;28;20272;-66
2021/06/08 03:53:24;;;;;;;26.55;23.75;;;18.70;99.90;;;;;;4989853;28;20437;-67
2021/06/08 03:55:51;;;;;;;26.83;24.05;;;18.60;99.90;;;;;;5001031;28;20745;-66
2021/06/08 03:58:18;;;;;;;28.35;25.55;;;18.60;99.90;;;;;;5000750;28;20899;-67
2021/06/08 04:00:46;;;;;;;27.85;24.60;;;18.60;99.90;;;;;;4998306;28;20610;-66
2021/06/08 04:03:13;;;;;;;28.60;25.60;;;18.60;99.90;;;;;;4986523;28;20203;-67
2021/06/08 04:05:39;;;;;;;29.67;26.58;;;18.60;99.90;;;;;;4993557;28;20244;-67
2021/06/08 04:08:08;;;;;;;27.08;24.20;;;18.60;99.90;;;;;;4988846;28;20186;-67
2021/06/08 04:10:34;;;;;;;28.40;25.38;;;18.70;99.90;;;;;;4988923;28;20193;-66
2021/06/08 04:13:02;;;;;;;27.95;25.05;;;18.70;99.90;;;;;;4996701;28;20579;-66
2021/06/08 04:15:29;;;;;;;27.33;24.58;;;18.60;99.90;;;;;;5001781;28;20957;-66
2021/06/08 04:17:55;;;;;;;28.60;25.65;;;18.60;99.90;;;;;;4998266;28;20247;-67
2021/06/08 04:20:20;;;;;;;27.15;24.27;;;18.50;99.90;;;;;;5000447;28;20190;-67
2021/06/08 04:22:47;;;;;;;26.93;24.23;;;18.60;99.90;;;;;;4998924;28;20187;-66
2021/06/08 04:25:15;;;;;;;27.10;24.27;;;18.60;99.90;;;;;;4990125;28;20331;-67
2021/06/08 04:27:41;;;;;;;29.10;26.05;;;18.70;99.90;;;;;;4992921;28;20221;-67
2021/06/08 04:30:09;;;;;;;26.13;23.43;;;18.60;99.90;;;;;;4999889;28;20697;-67
2021/06/08 04:32:35;;;;;;;29.20;26.17;;;18.60;99.90;;;;;;4991822;28;20456;-67
2021/06/08 04:35:02;;;;;;;27.38;24.38;;;18.80;99.90;;;;;;4994080;28;20199;-67
2021/06/08 04:37:28;;;;;;;30.05;26.85;;;18.70;99.90;;;;;;4995871;28;20210;-66
2021/06/08 04:39:54;;;;;;;31.00;25.47;;;18.70;99.90;;;;;;4994660;28;20657;-66
2021/06/08 04:42:20;;;;;;;28.93;25.57;;;18.80;99.90;;;;;;4994810;28;20187;-66
2021/06/08 04:44:47;;;;;;;28.47;25.53;;;18.70;99.90;;;;;;4996351;28;20192;-66
2021/06/08 04:47:15;;;;;;;28.08;24.85;;;18.50;99.90;;;;;;4994071;28;20464;-66
2021/06/08 04:49:41;;;;;;;27.40;24.65;;;18.50;99.90;;;;;;4994891;28;20560;-68
2021/06/08 04:52:07;;;;;;;27.27;24.37;;;18.50;99.90;;;;;;5002759;28;20192;-69
2021/06/08 04:54:34;;;;;;;29.55;26.45;;;18.50;99.90;;;;;;4983942;28;20210;-59
2021/06/08 04:57:05;;;;;;;27.75;24.85;;;18.40;99.90;;;;;;4988188;28;20244;-59
2021/06/08 04:59:57;;;;;;;28.85;25.85;;;18.50;99.90;;;;;;4984490;28;20553;-59
2021/06/08 05:02:34;;;;;;;28.90;25.80;;;18.60;99.90;;;;;;4986299;28;20960;-59
2021/06/08 05:05:22;;;;;;;27.40;24.50;;;18.20;99.90;;;;;;4987956;28;20621;-59
2021/06/08 05:08:05;;;;;;;29.67;26.77;;;18.60;99.90;;;;;;4989215;28;20209;-60
2021/06/08 05:10:36;;;;;;;27.75;24.80;;;18.70;99.90;;;;;;4987155;28;20194;-61
2021/06/08 05:13:03;;;;;;;26.65;23.90;;;18.70;99.90;;;;;;4988292;28;20185;-59
2021/06/08 05:15:30;;;;;;;27.20;24.40;;;18.70;99.90;;;;;;4990270;28;20215;-59
2021/06/08 05:17:56;;;;;;;28.52;25.75;;;18.80;99.90;;;;;;4988530;28;20193;-59
2021/06/08 05:20:22;;;;;;;27.55;24.70;;;18.80;99.90;;;;;;4983120;28;20182;-61
2021/06/08 05:22:50;;;;;;;28.05;25.10;;;18.90;99.90;;;;;;4991440;28;20577;-59
2021/06/08 05:25:16;;;;;;;27.05;24.35;;;18.60;99.90;;;;;;4982905;28;20239;-59
2021/06/08 05:27:44;;;;;;;25.83;22.97;;;18.80;99.90;;;;;;4987310;28;20664;-59
2021/06/08 05:30:10;;;;;;;27.35;24.58;;;18.70;99.90;;;;;;4987932;28;20968;-58
2021/06/08 05:32:39;;;;;;;26.17;23.25;;;18.90;99.90;;;;;;4988400;28;20832;-58
2021/06/08 05:35:09;;;;;;;26.90;24.40;;;18.90;99.90;;;;;;4987530;28;20207;-58
2021/06/08 05:37:40;;;;;;;27.08;24.23;;;19.00;99.90;;;;;;4986697;28;20244;-57
2021/06/08 05:40:06;;;;;;;27.40;24.38;;;18.80;99.90;;;;;;4984300;28;20191;-57
2021/06/08 05:42:32;;;;;;;27.48;24.88;;;18.80;99.90;;;;;;4997212;28;20260;-57
2021/06/08 05:44:58;;;;;;;26.33;23.53;;;18.80;99.90;;;;;;4996866;28;20606;-58
2021/06/08 05:47:24;;;;;;;26.03;23.47;;;18.90;99.90;;;;;;4991959;28;20735;-57
2021/06/08 05:49:50;;;;;;;26.92;24.23;;;19.00;99.90;;;;;;4997051;28;20181;-57
2021/06/08 05:52:16;;;;;;;26.03;23.43;;;19.00;99.90;;;;;;4993366;28;20214;-57
2021/06/08 05:54:42;;;;;;;27.10;24.33;;;19.00;99.90;;;;;;4991067;28;20200;-57
2021/06/08 05:57:09;;;;;;;27.08;24.08;;;19.00;99.90;;;;;;4994381;28;20973;-57
2021/06/08 05:59:37;;;;;;;27.98;24.98;;;19.10;99.90;;;;;;4991430;28;20281;-58
2021/06/08 06:02:04;;;;;;;26.55;23.90;;;19.10;99.90;;;;;;5003733;28;20243;-58
2021/06/08 06:04:30;;;;;;;26.67;24.00;;;19.10;99.90;;;;;;4993383;28;20190;-56
2021/06/08 06:06:58;;;;;;;26.63;24.02;;;19.10;99.90;;;;;;4996459;28;20209;-57
2021/06/08 06:09:25;;;;;;;25.73;23.23;;;19.10;99.90;;;;;;4995462;28;20504;-57
2021/06/08 06:11:53;;;;;;;26.30;23.50;;;19.20;99.90;;;;;;4988752;28;20185;-57
2021/06/08 06:14:25;;;;;;;26.77;24.15;;;19.10;99.90;;;;;;4990259;28;20193;-57
2021/06/08 06:16:53;;;;;;;28.20;25.23;;;19.20;99.90;;;;;;4990905;28;20238;-57
2021/06/08 06:19:25;;;;;;;26.08;21.98;;;19.10;99.90;;;;;;4985839;28;20186;-66
2021/06/08 06:21:53;;;;;;;25.63;23.00;;;19.00;99.90;;;;;;4986029;28;20282;-70
2021/06/08 06:24:19;;;;;;;22.08;19.75;;;19.20;99.90;;;;;;4988572;28;20756;-66
2021/06/08 06:26:45;;;;;;;27.20;24.40;;;19.40;99.90;;;;;;4997417;28;20683;-61
2021/06/08 06:29:13;;;;;;;25.60;22.90;;;19.40;99.90;;;;;;4998779;28;20216;-61
2021/06/08 06:31:48;;;;;;;25.88;23.25;;;19.50;99.90;;;;;;4997696;28;20446;-62
2021/06/08 06:34:17;;;;;;;26.02;23.42;;;19.60;99.90;;;;;;4988837;28;20205;-61
2021/06/08 06:36:46;;;;;;;27.55;24.70;;;19.50;99.90;;;;;;4990085;28;20324;-61
2021/06/08 06:39:21;;;;;;;28.30;25.30;;;19.40;99.90;;;;;;5017149;28;20205;-61
2021/06/08 06:41:50;;;;;;;26.83;24.02;;;19.40;99.90;;;;;;4999325;28;20842;-61
2021/06/08 06:44:18;;;;;;;28.92;25.98;;;19.20;99.90;;;;;;4991138;28;20189;-60
2021/06/08 06:46:50;;;;;;;29.17;26.08;;;19.30;99.90;;;;;;4999126;28;20205;-61
2021/06/08 06:49:16;;;;;;;32.17;24.48;;;19.40;99.90;;;;;;4988578;28;20194;-61
2021/06/08 06:51:45;;;;;;;31.60;24.08;;;19.40;99.90;;;;;;4987591;28;20190;-59
2021/06/08 06:54:11;;;;;;;26.63;23.92;;;19.40;99.90;;;;;;5000967;28;20502;-60
2021/06/08 06:56:38;;;;;;;27.92;24.55;;;19.40;99.90;;;;;;4991350;28;20223;-60
2021/06/08 06:59:04;;;;;;;25.02;22.10;;;19.40;99.90;;;;;;4990072;28;20191;-60
2021/06/08 07:01:30;;;;;;;27.15;23.73;;;19.60;99.90;;;;;;4989750;28;20209;-59
2021/06/08 07:03:58;;;;;;;29.43;26.30;;;19.60;99.90;;;;;;5006078;28;20664;-60
2021/06/08 07:06:24;;;;;;;31.58;28.23;;;19.60;99.90;;;;;;4989183;28;20492;-60
2021/06/08 07:08:55;;;;;;;26.80;23.98;;;19.70;99.90;;;;;;4987187;28;20571;-60
2021/06/08 07:11:22;;;;;;;26.38;23.05;;;20.10;99.90;;;;;;4989587;28;20214;-60
2021/06/08 07:13:48;;;;;;;27.13;23.80;;;20.00;99.90;;;;;;4998813;28;20571;-60
2021/06/08 07:16:20;;;;;;;26.10;23.45;;;19.80;99.90;;;;;;4989286;28;20219;-60
2021/06/08 07:18:47;;;;;;;25.02;22.70;;;19.80;99.90;;;;;;4989642;28;20182;-60
2021/06/08 07:21:15;;;;;;;25.52;23.02;;;20.00;99.90;;;;;;4989315;28;20195;-60
2021/06/08 07:23:46;;;;;;;24.55;22.25;;;19.90;99.90;;;;;;4989648;28;20179;-60
2021/06/08 07:26:13;;;;;;;26.63;23.75;;;20.00;99.90;;;;;;4988679;28;20207;-59
2021/06/08 07:28:39;;;;;;;27.23;24.35;;;20.00;99.90;;;;;;4989757;28;20245;-60
2021/06/08 07:31:05;;;;;;;25.40;22.80;;;20.10;99.90;;;;;;4988579;28;20188;-60
2021/06/08 07:34:03;;;;;;;25.60;22.47;;;20.10;99.90;;;;;;4997140;28;20921;-63
2021/06/08 07:36:38;;;;;;;28.60;25.40;;;20.20;99.90;;;;;;4986195;28;20500;-60
2021/06/08 07:39:28;;;;;;;26.52;23.83;;;20.20;99.90;;;;;;4988483;28;20183;-59
2021/06/08 07:42:02;;;;;;;29.60;25.05;;;20.10;99.90;;;;;;4988549;28;20284;-60
2021/06/08 07:44:32;;;;;;;25.40;22.52;;;20.20;99.90;;;;;;4993442;28;20218;-60
2021/06/08 07:47:02;;;;;;;28.55;25.75;;;20.10;99.90;;;;;;4989964;28;20214;-60
2021/06/08 07:49:29;;;;;;;28.90;24.20;;;20.20;99.90;;;;;;5003973;28;20179;-60
2021/06/08 07:51:56;;;;;;;27.20;24.30;;;20.30;99.90;;;;;;4999383;28;20233;-59
2021/06/08 07:54:23;;;;;;;25.48;22.95;;;20.30;99.90;;;;;;4987613;28;20183;-64
2021/06/08 07:56:50;;;;;;;20.15;17.88;;;20.40;99.90;;;;;;4986190;28;20293;-64
2021/06/08 07:59:16;;;;;;;25.83;22.00;;;20.50;99.90;;;;;;4988893;28;20182;-66
2021/06/08 08:01:42;;;;;;;26.77;24.10;;;20.70;99.90;;;;;;4996652;28;20540;-63
2021/06/08 08:04:09;;;;;;;25.38;22.80;;;20.70;99.90;;;;;;4987896;28;20452;-63
2021/06/08 08:06:36;;;;;;;25.67;22.88;;;20.60;99.90;;;;;;4986190;28;20199;-61
2021/06/08 08:09:04;;;;;;;27.33;24.13;;;20.60;99.90;;;;;;4999807;28;20266;-59
2021/06/08 08:11:36;;;;;;;26.33;23.67;;;20.70;99.90;;;;;;4991459;28;20187;-58
2021/06/08 08:14:04;;;;;;;25.60;22.95;;;20.50;99.90;;;;;;4993217;28;20179;-59
2021/06/08 08:16:30;;;;;;;25.73;23.30;;;20.40;99.90;;;;;;4996763;28;20222;-59
2021/06/08 08:18:58;;;;;;;29.27;26.15;;;20.30;99.90;;;;;;5002736;28;20221;-60
2021/06/08 08:21:24;;;;;;;25.85;23.38;;;20.10;99.90;;;;;;4995504;28;20192;-58
2021/06/08 08:23:49;;;;;;;28.73;25.83;;;20.20;99.90;;;;;;4988286;28;20179;-60
2021/06/08 08:26:15;;;;;;;27.83;24.90;;;20.20;99.90;;;;;;4995447;28;20242;-60
2021/06/08 08:28:43;;;;;;;27.23;24.63;;;20.10;99.90;;;;;;4988620;28;20188;-61
2021/06/08 08:31:12;;;;;;;25.92;23.38;;;20.00;99.90;;;;;;4995114;28;20552;-59
2021/06/08 08:33:37;;;;;;;26.90;24.10;;;20.10;99.90;;;;;;4989888;28;20210;-58
2021/06/08 08:36:03;;;;;;;29.10;26.10;;;20.10;99.90;;;;;;4987285;28;20289;-59
2021/06/08 08:38:30;;;;;;;28.45;25.75;;;20.20;99.90;;;;;;4984054;28;20196;-60
2021/06/08 08:40:58;;;;;;;29.27;26.27;;;20.20;99.90;;;;;;4987252;28;20683;-59
2021/06/08 08:43:25;;;;;;;28.65;25.75;;;20.30;99.90;;;;;;4995392;28;20188;-60
2021/06/08 08:45:51;;;;;;;27.95;25.33;;;20.40;99.90;;;;;;4990574;28;20219;-60
2021/06/08 08:48:19;;;;;;;28.67;25.92;;;20.50;99.90;;;;;;4991878;28;20660;-60
2021/06/08 08:50:47;;;;;;;28.10;25.35;;;20.70;99.90;;;;;;5001766;28;20191;-61
2021/06/08 08:53:16;;;;;;;29.88;26.88;;;20.80;99.90;;;;;;4985485;28;20192;-60
2021/06/08 08:55:44;;;;;;;30.65;27.65;;;20.80;99.90;;;;;;4990642;28;20223;-61
2021/06/08 08:58:10;;;;;;;28.25;25.55;;;20.80;99.90;;;;;;5004877;28;20241;-58
2021/06/08 09:00:36;;;;;;;27.30;24.70;;;20.80;99.90;;;;;;4997189;28;20184;-58
2021/06/08 09:03:04;;;;;;;27.40;24.50;;;21.00;99.90;;;;;;4996166;28;20442;-62
2021/06/08 09:05:38;;;;;;;26.73;24.10;;;21.10;99.90;;;;;;4996538;28;20241;-61
2021/06/08 09:08:05;;;;;;;28.02;25.40;;;21.20;99.90;;;;;;4987785;28;20184;-61
2021/06/08 09:10:36;;;;;;;29.58;26.63;;;21.30;99.90;;;;;;4993368;28;20190;-61
2021/06/08 09:13:03;;;;;;;27.38;24.73;;;21.20;99.90;;;;;;4990397;28;20208;-61
2021/06/08 09:15:30;;;;;;;29.02;26.13;;;21.00;99.90;;;;;;5007008;28;20202;-61
2021/06/08 09:17:57;;;;;;;29.75;26.60;;;21.10;99.90;;;;;;4993310;28;20810;-62
2021/06/08 09:20:27;;;;;;;28.45;25.67;;;21.30;99.90;;;;;;5004390;28;20187;-61
2021/06/08 09:23:04;;;;;;;29.23;26.42;;;21.50;99.90;;;;;;4988336;28;20184;-62
2021/06/08 09:25:45;;;;;;;26.23;23.85;;;21.80;99.90;;;;;;4985974;28;20704;-61
2021/06/08 09:28:46;;;;;;;25.65;23.25;;;22.10;99.90;;;;;;4992796;28;20196;-61
2021/06/08 09:31:24;;;;;;;28.00;24.88;;;22.30;99.90;;;;;;4995670;28;20196;-61
2021/06/08 09:33:52;;;;;;;29.63;26.67;;;22.30;99.90;;;;;;4988489;28;20206;-61
2021/06/08 09:36:20;;;;;;;28.45;25.85;;;22.40;99.90;;;;;;4984047;28;20215;-62
2021/06/08 09:38:53;;;;;;;28.35;25.58;;;22.20;99.90;;;;;;4987671;28;20186;-61
2021/06/08 09:41:22;;;;;;;27.52;25.02;;;22.20;99.90;;;;;;4992344;28;20278;-61
2021/06/08 09:44:04;;;;;;;27.85;25.40;;;22.40;99.90;;;;;;4998403;28;20268;-61
2021/06/08 09:46:46;;;;;;;28.17;25.23;;;22.30;99.90;;;;;;4996795;28;20202;-60
2021/06/08 09:49:17;;;;;;;27.15;24.65;;;22.20;99.90;;;;;;4989119;28;20195;-59
2021/06/08 09:51:49;;;;;;;29.30;26.52;;;22.10;99.90;;;;;;4992271;28;20187;-59
2021/06/08 09:54:37;;;;;;;28.50;25.60;;;22.00;99.90;;;;;;5001304;28;20675;-61
2021/06/08 09:57:28;;;;;;;27.85;25.25;;;21.90;99.90;;;;;;4989726;28;20689;-61
2021/06/08 09:59:58;;;;;;;28.52;25.80;;;22.00;99.90;;;;;;5009074;28;20245;-60
2021/06/08 10:02:32;;;;;;;27.88;25.25;;;22.20;99.90;;;;;;4992705;28;20618;-60
2021/06/08 10:05:25;;;;;;;28.27;25.73;;;22.30;99.90;;;;;;4993762;28;20605;-60
2021/06/08 10:07:52;;;;;;;26.90;24.55;;;22.50;99.90;;;;;;5001028;28;20179;-60
2021/06/08 10:10:24;;;;;;;28.02;25.38;;;22.70;99.90;;;;;;4993974;28;20180;-60
2021/06/08 10:13:04;;;;;;;26.80;24.30;;;22.90;99.90;;;;;;4990663;28;20188;-60
2021/06/08 10:15:35;;;;;;;27.27;24.67;;;23.20;99.90;;;;;;4990288;28;20241;-60
2021/06/08 10:18:08;;;;;;;28.63;26.13;;;23.40;99.90;;;;;;4990500;28;20439;-60
2021/06/08 10:20:39;;;;;;;26.10;23.80;;;23.30;99.90;;;;;;5000271;28;20430;-61
2021/06/08 10:23:26;;;;;;;27.03;24.63;;;23.50;99.90;;;;;;4990321;28;20431;-60
2021/06/08 10:25:54;;;;;;;26.57;24.17;;;23.50;99.90;;;;;;4990498;28;20456;-60
2021/06/08 10:28:21;;;;;;;27.03;24.53;;;23.40;99.90;;;;;;4990419;28;20489;-60
2021/06/08 10:30:49;;;;;;;27.13;24.63;;;23.90;99.90;;;;;;4990543;28;20438;-60
2021/06/08 10:33:15;;;;;;;28.93;26.17;;;23.70;99.90;;;;;;4990415;28;20668;-60
2021/06/08 10:35:42;;;;;;;28.27;25.60;;;23.80;99.90;;;;;;4990774;28;20478;-60
2021/06/08 10:38:10;;;;;;;28.10;25.60;;;23.60;99.90;;;;;;4990095;28;20441;-60
2021/06/08 10:40:38;;;;;;;31.30;28.30;;;23.50;99.90;;;;;;4990472;28;20450;-60
2021/06/08 10:43:04;;;;;;;27.43;24.93;;;23.60;99.90;;;;;;4990215;28;20427;-60
2021/06/08 10:45:35;;;;;;;29.83;27.20;;;23.30;99.90;;;;;;4989774;28;20631;-61
2021/06/08 10:48:36;;;;;;;25.20;22.70;;;23.60;99.90;;;;;;4990065;28;20577;-60
2021/06/08 10:51:12;;;;;;;26.93;24.33;;;23.60;99.90;;;;;;4987996;28;20445;-60
2021/06/08 10:53:47;;;;;;;25.50;23.20;;;23.80;99.90;;;;;;4992009;28;20515;-60
2021/06/08 10:56:32;;;;;;;25.53;23.33;;;23.60;99.90;;;;;;4989940;28;20482;-60
2021/06/08 10:59:01;;;;;;;28.97;26.23;;;24.00;99.90;;;;;;4989917;28;20435;-60
2021/06/08 11:01:42;;;;;;;25.53;23.20;;;24.20;99.80;;;;;;4989980;28;20641;-58
2021/06/08 11:04:16;;;;;;;26.93;24.43;;;24.40;99.50;;;;;;4986131;28;20444;-59
2021/06/08 11:06:45;;;;;;;27.43;25.00;;;24.20;99.80;;;;;;5005095;28;20453;-58
2021/06/08 11:09:13;;;;;;;25.63;23.43;;;24.40;99.30;;;;;;4989630;28;20445;-58
2021/06/08 11:11:58;;;;;;;26.03;23.33;;;24.40;99.10;;;;;;5001278;28;20886;-59
2021/06/08 11:14:42;;;;;;;25.23;22.83;;;24.50;99.30;;;;;;4989849;28;20437;-58
2021/06/08 11:17:30;;;;;;;25.40;23.30;;;24.60;99.00;;;;;;4990081;28;20462;-59
2021/06/08 11:19:58;;;;;;;26.67;24.37;;;24.40;99.10;;;;;;4991272;28;20789;-60
2021/06/08 11:22:33;;;;;;;24.23;22.13;;;24.10;99.30;;;;;;4989922;28;20430;-61
2021/06/08 11:25:00;;;;;;;27.53;24.93;;;24.30;99.60;;;;;;4989501;28;20429;-60
2021/06/08 11:27:53;;;;;;;27.47;24.97;;;23.90;99.70;;;;;;4995365;28;20454;-60
2021/06/08 11:30:27;;;;;;;25.80;23.50;;;24.10;99.90;;;;;;4989897;28;20900;-60
2021/06/08 11:32:53;;;;;;;28.40;25.60;;;24.30;99.90;;;;;;4988839;28;20454;-60
2021/06/08 11:35:21;;;;;;;26.87;24.40;;;24.20;99.90;;;;;;4989391;28;20919;-60
2021/06/08 11:37:57;;;;;;;26.90;24.50;;;24.30;99.90;;;;;;4989710;28;20460;-61
2021/06/08 11:40:35;;;;;;;26.57;24.00;;;24.20;99.50;;;;;;4989657;28;20481;-60
2021/06/08 11:43:02;;;;;;;29.27;26.67;;;24.10;99.90;;;;;;4989658;28;20527;-60
2021/06/08 11:45:30;;;;;;;28.07;25.50;;;23.90;99.90;;;;;;5001450;28;20443;-60
2021/06/08 11:47:56;;;;;;;29.38;26.58;;;23.90;99.90;;;;;;4989840;28;20446;-60
2021/06/08 11:50:45;;;;;;;27.10;24.70;;;23.90;99.90;;;;;;4990803;28;20192;-60
2021/06/08 11:53:15;;;;;;;28.23;25.67;;;23.60;99.90;;;;;;4987965;28;20191;-60
2021/06/08 11:55:43;;;;;;;27.33;24.83;;;23.80;99.90;;;;;;4990542;28;20470;-60
2021/06/08 11:58:32;;;;;;;25.50;23.10;;;24.10;99.90;;;;;;4989184;28;20908;-60
2021/06/08 12:00:58;;;;;;;26.37;23.73;;;24.30;99.90;;;;;;4993437;28;20488;-58
2021/06/08 12:03:38;;;;;;;27.13;24.63;;;24.30;99.90;;;;;;4986054;28;20435;-58
2021/06/08 12:06:06;;;;;;;26.03;23.73;;;24.60;99.90;;;;;;4989059;28;20488;-61
2021/06/08 12:08:34;;;;;;;25.67;23.47;;;24.90;99.20;;;;;;4989217;28;20439;-61
2021/06/08 12:11:12;;;;;;;27.57;25.20;;;24.50;99.50;;;;;;4989413;28;20541;-60
2021/06/08 12:13:40;;;;;;;25.07;22.87;;;24.60;99.50;;;;;;4989388;28;20492;-60
2021/06/08 12:16:06;;;;;;;26.27;23.77;;;24.50;99.00;;;;;;4989054;28;20474;-59
2021/06/08 12:18:36;;;;;;;26.07;23.67;;;24.30;99.20;;;;;;4990449;28;20944;-59
2021/06/08 12:21:08;;;;;;;27.50;24.90;;;24.30;99.30;;;;;;4989469;28;20218;-60
2021/06/08 12:23:36;;;;;;;25.70;23.50;;;24.30;99.50;;;;;;4989326;28;20561;-60
2021/06/08 12:26:14;;;;;;;27.83;25.30;;;24.30;99.80;;;;;;4988771;28;20565;-59
2021/06/08 12:28:41;;;;;;;26.60;24.00;;;24.10;99.80;;;;;;4987415;28;20446;-60
2021/06/08 12:31:10;;;;;;;26.73;24.33;;;24.20;99.90;;;;;;5002386;28;20439;-60
2021/06/08 12:33:37;;;;;;;26.43;24.00;;;24.40;99.40;;;;;;4984817;28;20497;-60
2021/06/08 12:36:07;;;;;;;28.63;26.13;;;24.40;99.80;;;;;;4989117;28;20948;-60
2021/06/08 12:38:33;;;;;;;26.60;24.37;;;24.50;99.50;;;;;;4996180;28;20456;-60
2021/06/08 12:41:08;;;;;;;25.47;23.27;;;24.90;99.00;;;;;;4987925;28;20549;-59
2021/06/08 12:43:49;;;;;;;24.67;22.47;;;25.20;98.40;;;;;;4988677;28;20513;-58